Time;durP1;ratioP1;P1;durP2;ratioP2;P2;SDS_P1;SDS_P2;PMS_P1;PMS_P2;Temp;Humidity;BMP_temperature;BMP_pressure;BME280_temperature;BME280_humidity;BME280_pressure;Samples;Min_cycle;Max_cycle;Signal;HPM_P1;HPM_P2
2024/01/27 00:00:56;;;;;;;12.00;8.20;;;;;;;-8.08;100.00;140319.53;110573;1267;23159;-59
2024/01/27 00:03:43;;;;;;;19.00;10.50;;;;;;;-8.05;100.00;140326.17;110556;1274;22331;-60
2024/01/27 00:06:28;;;;;;;13.30;8.60;;;;;;;-8.11;100.00;140312.36;110557;1274;22300;-61
2024/01/27 00:09:15;;;;;;;14.80;9.20;;;;;;;-8.07;100.00;140321.97;110555;1270;22347;-58
2024/01/27 00:12:01;;;;;;;15.80;9.20;;;;;;;-8.09;100.00;140318.53;110604;1274;22933;-61
2024/01/27 00:14:47;;;;;;;12.20;8.80;;;;;;;-8.10;100.00;140316.30;110682;1270;22146;-59
2024/01/27 00:17:35;;;;;;;14.80;9.10;;;;;;;-8.20;100.00;140291.39;110596;1269;22305;-59
2024/01/27 00:20:21;;;;;;;12.90;7.60;;;;;;;-8.23;100.00;140284.00;110589;1260;22132;-59
2024/01/27 00:23:08;;;;;;;12.70;8.40;;;;;;;-8.28;100.00;140271.67;110569;1274;22138;-60
2024/01/27 00:25:54;;;;;;;14.00;8.70;;;;;;;-8.30;100.00;140267.72;110558;1274;22127;-60
2024/01/27 00:28:40;;;;;;;15.40;9.30;;;;;;;-8.24;100.00;140280.80;110647;1270;22128;-58
2024/01/27 00:31:26;;;;;;;12.30;8.60;;;;;;;-8.18;100.00;140295.34;110587;1271;22139;-58
2024/01/27 00:34:12;;;;;;;14.50;8.80;;;;;;;-8.20;100.00;140289.67;110608;1258;22361;-54
2024/01/27 00:36:58;;;;;;;15.50;8.60;;;;;;;-8.16;100.00;140299.53;110558;1274;22344;-60
2024/01/27 00:39:45;;;;;;;14.60;8.90;;;;;;;-8.17;100.00;140298.78;110523;1275;22753;-59
2024/01/27 00:42:31;;;;;;;13.30;8.30;;;;;;;-8.09;100.00;140319.03;110542;1275;22151;-60
2024/01/27 00:45:17;;;;;;;13.50;9.10;;;;;;;-8.02;100.00;140334.55;110555;1274;22155;-56
2024/01/27 00:48:03;;;;;;;13.80;8.30;;;;;;;-8.06;100.00;140324.47;110584;1274;22114;-61
2024/01/27 00:50:49;;;;;;;14.30;9.40;;;;;;;-8.10;100.00;140315.81;110610;1270;22889;-58
2024/01/27 00:53:36;;;;;;;14.00;9.30;;;;;;;-8.09;100.00;140318.53;110566;1275;22162;-60
2024/01/27 00:56:22;;;;;;;17.60;10.50;;;;;;;-8.11;100.00;140313.11;110568;1275;22793;-56
2024/01/27 00:59:08;;;;;;;16.90;10.20;;;;;;;-8.11;100.00;140313.59;110608;1274;22119;-56
2024/01/27 01:01:53;;;;;;;18.80;10.30;;;;;;;-8.14;100.00;140305.70;110548;1274;22123;-59
2024/01/27 01:04:41;;;;;;;16.80;9.30;;;;;;;-8.16;100.00;140300.28;110585;1274;22145;-57
2024/01/27 01:07:27;;;;;;;14.90;9.30;;;;;;;-8.18;100.00;140295.59;110569;1274;22109;-59
2024/01/27 01:10:13;;;;;;;15.60;9.70;;;;;;;-8.22;100.00;140285.22;110555;1274;22129;-58
2024/01/27 01:12:59;;;;;;;13.00;9.00;;;;;;;-8.25;100.00;140279.08;110541;1274;22241;-58
2024/01/27 01:15:45;;;;;;;17.60;10.20;;;;;;;-8.25;100.00;140278.56;110576;1274;22763;-58
2024/01/27 01:18:31;;;;;;;16.10;9.90;;;;;;;-8.32;100.00;140262.05;110553;1274;22133;-60
2024/01/27 01:21:18;;;;;;;15.90;10.20;;;;;;;-8.32;100.00;140262.78;110565;1274;22826;-60
2024/01/27 01:24:04;;;;;;;16.20;10.20;;;;;;;-8.27;100.00;140273.88;110536;1274;22161;-62
2024/01/27 01:26:50;;;;;;;17.30;10.00;;;;;;;-8.24;100.00;140281.78;110553;1274;22134;-58
2024/01/27 01:29:37;;;;;;;14.60;8.60;;;;;;;-8.29;100.00;140268.47;110480;1270;22785;-60
2024/01/27 01:32:23;;;;;;;20.00;12.00;;;;;;;-8.26;100.00;140276.59;110537;1270;22295;-60
2024/01/27 01:35:10;;;;;;;16.70;9.90;;;;;;;-8.29;100.00;140269.44;110627;1254;22414;-57
2024/01/27 01:37:56;;;;;;;17.00;10.10;;;;;;;-8.33;100.00;140260.56;110512;1272;22800;-63
2024/01/27 01:40:42;;;;;;;15.10;9.60;;;;;;;-8.38;100.00;140246.53;110640;1257;22306;-59
2024/01/27 01:43:28;;;;;;;15.20;9.40;;;;;;;-8.42;100.00;140236.95;110533;1267;22336;-60
2024/01/27 01:46:14;;;;;;;13.60;7.80;;;;;;;-8.42;100.00;140237.16;110568;1269;22147;-58
2024/01/27 01:49:00;;;;;;;13.10;8.70;;;;;;;-8.42;100.00;140238.16;110578;1269;22393;-61
2024/01/27 01:51:47;;;;;;;12.60;8.00;;;;;;;-8.43;100.00;140234.97;110546;1261;22155;-59
2024/01/27 01:54:34;;;;;;;14.70;9.00;;;;;;;-8.44;100.00;140233.48;110609;1261;22127;-58
2024/01/27 01:57:20;;;;;;;10.80;7.10;;;;;;;-8.37;100.00;140250.45;110537;1254;22328;-58
2024/01/27 02:00:07;;;;;;;11.70;7.60;;;;;;;-8.38;100.00;140247.50;110554;1274;22893;-60
2024/01/27 02:03:00;;;;;;;9.50;6.30;;;;;;;-8.40;100.00;140243.34;110500;1269;22139;-62
2024/01/27 02:05:46;;;;;;;10.00;6.50;;;;;;;-8.39;100.00;140244.81;110633;1269;23038;-57
2024/01/27 02:08:33;;;;;;;11.90;7.00;;;;;;;-8.39;100.00;140244.08;110570;1254;22151;-64
2024/01/27 02:11:19;;;;;;;9.90;6.60;;;;;;;-8.41;100.00;140239.66;110589;1260;22147;-60
2024/01/27 02:14:06;;;;;;;8.20;5.50;;;;;;;-8.45;100.00;140230.77;110565;1274;22099;-57
2024/01/27 02:16:52;;;;;;;9.90;6.30;;;;;;;-8.55;100.00;140208.34;110541;1274;22146;-59
2024/01/27 02:19:39;;;;;;;8.70;6.00;;;;;;;-8.60;100.00;140195.50;110458;1269;22338;-55
2024/01/27 02:22:25;;;;;;;9.40;6.20;;;;;;;-8.61;100.00;140192.05;110459;1269;22128;-62
2024/01/27 02:25:11;;;;;;;9.90;6.70;;;;;;;-8.59;100.00;140196.75;110591;1267;22532;-58
2024/01/27 02:27:57;;;;;;;10.20;6.90;;;;;;;-8.59;100.00;140197.22;110518;1251;22352;-56
2024/01/27 02:30:44;;;;;;;9.30;6.10;;;;;;;-8.61;100.00;140191.55;110624;1268;22141;-58
2024/01/27 02:33:30;;;;;;;10.90;6.80;;;;;;;-8.63;100.00;140187.84;110837;1261;22142;-58
2024/01/27 02:36:16;;;;;;;10.90;7.20;;;;;;;-8.65;100.00;140181.95;110532;1275;22144;-57
2024/01/27 02:39:02;;;;;;;12.40;7.10;;;;;;;-8.62;100.00;140190.58;110462;1275;22169;-62
2024/01/27 02:41:48;;;;;;;10.70;6.60;;;;;;;-8.60;100.00;140195.25;110541;1275;22864;-61
2024/01/27 02:44:34;;;;;;;10.40;6.40;;;;;;;-8.61;100.00;140192.55;110451;1275;22119;-54
2024/01/27 02:47:20;;;;;;;10.40;6.60;;;;;;;-8.65;100.00;140181.70;110477;1275;22153;-56
2024/01/27 02:50:07;;;;;;;9.20;6.00;;;;;;;-8.68;100.00;140174.80;110391;1276;22170;-57
2024/01/27 02:52:53;;;;;;;9.80;6.70;;;;;;;-8.69;100.00;140173.31;110406;1276;22839;-58
2024/01/27 02:55:39;;;;;;;12.10;6.90;;;;;;;-8.66;100.00;140181.45;110468;1276;22136;-62
2024/01/27 02:58:25;;;;;;;9.50;6.70;;;;;;;-8.60;100.00;140194.03;110442;1276;22105;-58
2024/01/27 03:01:11;;;;;;;11.10;7.40;;;;;;;-8.56;100.00;140203.88;110453;1276;22137;-60
2024/01/27 03:03:57;;;;;;;14.70;8.30;;;;;;;-8.49;100.00;140219.42;110454;1276;22797;-61
2024/01/27 03:06:43;;;;;;;17.00;9.10;;;;;;;-8.56;100.00;140205.86;110421;1276;22208;-59
2024/01/27 03:09:29;;;;;;;19.10;10.10;;;;;;;-8.59;100.00;140197.97;110406;1276;22122;-58
2024/01/27 03:12:15;;;;;;;17.20;9.90;;;;;;;-8.60;100.00;140194.05;110429;1276;22339;-58
2024/01/27 03:15:01;;;;;;;20.40;10.80;;;;;;;-8.61;100.00;140192.05;110517;1275;22825;-56
2024/01/27 03:17:48;;;;;;;13.90;9.30;;;;;;;-8.62;100.00;140189.09;110475;1275;23017;-59
2024/01/27 03:20:34;;;;;;;12.20;7.70;;;;;;;-8.65;100.00;140182.44;110509;1274;22138;-58
2024/01/27 03:23:20;;;;;;;10.20;7.30;;;;;;;-8.67;100.00;140178.00;110507;1274;22137;-60
2024/01/27 03:26:06;;;;;;;11.60;6.90;;;;;;;-8.70;100.00;140169.38;110491;1269;22333;-61
2024/01/27 03:28:53;;;;;;;9.70;6.50;;;;;;;-8.72;100.00;140164.92;110518;1260;22395;-62
2024/01/27 03:31:39;;;;;;;9.80;6.60;;;;;;;-8.68;100.00;140174.80;110502;1269;22360;-61
2024/01/27 03:34:27;;;;;;;9.10;6.50;;;;;;;-8.59;100.00;140197.47;110551;1268;22328;-62
2024/01/27 03:37:13;;;;;;;13.20;7.80;;;;;;;-8.57;100.00;140201.42;110640;1268;22301;-60
2024/01/27 03:39:59;;;;;;;9.70;6.40;;;;;;;-8.49;100.00;140220.41;110517;1274;22897;-60
2024/01/27 03:42:45;;;;;;;11.40;7.50;;;;;;;-8.46;100.00;140228.05;110510;1274;22190;-59
2024/01/27 03:45:31;;;;;;;12.00;7.70;;;;;;;-8.49;100.00;140220.66;110513;1272;22299;-56
2024/01/27 03:48:18;;;;;;;13.00;8.60;;;;;;;-8.50;100.00;140217.45;110497;1267;22360;-63
2024/01/27 03:51:04;;;;;;;14.20;7.40;;;;;;;-8.47;100.00;140223.86;110659;1268;22298;-58
2024/01/27 03:53:51;;;;;;;12.20;7.90;;;;;;;-8.41;100.00;140239.64;110495;1274;22188;-59
2024/01/27 03:56:37;;;;;;;10.50;7.50;;;;;;;-8.43;100.00;140236.19;110532;1267;22294;-62
2024/01/27 03:59:23;;;;;;;10.40;6.90;;;;;;;-8.41;100.00;140240.41;110522;1272;22303;-59
2024/01/27 04:02:09;;;;;;;12.50;6.90;;;;;;;-8.37;100.00;140249.97;110487;1269;22292;-61
2024/01/27 04:04:55;;;;;;;10.70;7.00;;;;;;;-8.33;100.00;140259.58;110493;1274;22357;-58
2024/01/27 04:07:41;;;;;;;9.20;6.70;;;;;;;-8.35;100.00;140255.63;110501;1274;22175;-56
2024/01/27 04:10:27;;;;;;;10.10;6.50;;;;;;;-8.33;100.00;140259.81;110481;1271;22820;-61
2024/01/27 04:13:13;;;;;;;10.40;6.10;;;;;;;-8.32;100.00;140261.53;110558;1267;22134;-63
2024/01/27 04:16:01;;;;;;;10.30;7.40;;;;;;;-8.28;100.00;140271.42;110524;1268;22527;-60
2024/01/27 04:18:47;;;;;;;10.30;7.00;;;;;;;-8.29;100.00;140269.45;110515;1267;22139;-62
2024/01/27 04:21:34;;;;;;;10.00;6.70;;;;;;;-8.25;100.00;140279.08;110537;1253;22829;-57
2024/01/27 04:24:20;;;;;;;12.80;7.60;;;;;;;-8.26;100.00;140277.08;110516;1274;22209;-60
2024/01/27 04:27:06;;;;;;;10.00;6.60;;;;;;;-8.29;100.00;140268.45;110457;1275;22108;-60
2024/01/27 04:29:53;;;;;;;11.60;7.40;;;;;;;-8.31;100.00;140264.52;110496;1274;22116;-58
2024/01/27 04:32:39;;;;;;;11.90;8.50;;;;;;;-8.26;100.00;140276.11;111072;1256;22321;-61
2024/01/27 04:35:25;;;;;;;17.10;9.90;;;;;;;-8.24;100.00;140281.30;110534;1269;22322;-59
2024/01/27 04:38:11;;;;;;;22.50;10.30;;;;;;;-8.27;100.00;140274.63;110584;1268;22833;-59
2024/01/27 04:40:57;;;;;;;10.80;7.30;;;;;;;-8.31;100.00;140264.25;110638;1268;22289;-59
2024/01/27 04:43:43;;;;;;;13.10;8.60;;;;;;;-8.35;100.00;140253.91;110549;1269;22819;-59
2024/01/27 04:46:29;;;;;;;13.40;8.80;;;;;;;-8.32;100.00;140262.28;110586;1268;22165;-60
2024/01/27 04:49:16;;;;;;;11.30;7.40;;;;;;;-8.28;100.00;140270.44;110502;1274;22312;-66
2024/01/27 04:52:02;;;;;;;10.70;6.90;;;;;;;-8.31;100.00;140265.00;110538;1269;22765;-63
2024/01/27 04:54:48;;;;;;;12.20;7.10;;;;;;;-8.36;100.00;140252.67;110534;1269;22200;-57
2024/01/27 04:57:34;;;;;;;11.20;8.00;;;;;;;-8.43;100.00;140233.72;110531;1268;22457;-61
2024/01/27 05:00:21;;;;;;;10.40;7.00;;;;;;;-8.43;100.00;140234.70;110505;1252;22098;-60
2024/01/27 05:03:13;;;;;;;10.00;7.10;;;;;;;-8.43;100.00;140235.95;110503;1272;22139;-61
2024/01/27 05:06:00;;;;;;;;;;;;;;;-8.43;100.00;140234.22;110606;1252;23151;-59
2024/01/27 05:08:46;;;;;;;10.10;7.00;;;;;;;-8.40;100.00;140243.34;110600;1269;22158;-61
2024/01/27 05:11:32;;;;;;;11.70;7.50;;;;;;;-8.38;100.00;140248.22;110634;1269;22419;-61
2024/01/27 05:14:19;;;;;;;11.50;7.20;;;;;;;-8.37;100.00;140249.97;110489;1266;22318;-64
2024/01/27 05:17:05;;;;;;;11.70;7.30;;;;;;;-8.41;100.00;140240.38;110590;1267;22871;-62
2024/01/27 05:19:51;;;;;;;9.00;6.50;;;;;;;-8.43;100.00;140235.20;110545;1272;22187;-64
2024/01/27 05:22:37;;;;;;;10.90;6.80;;;;;;;-8.45;100.00;140230.27;110599;1268;22142;-58
2024/01/27 05:25:23;;;;;;;12.90;8.20;;;;;;;-8.42;100.00;140238.66;110625;1269;22316;-61
2024/01/27 05:28:09;;;;;;;10.30;6.90;;;;;;;-8.35;100.00;140254.64;110530;1269;22843;-60
2024/01/27 05:30:55;;;;;;;12.00;7.70;;;;;;;-8.40;100.00;140242.09;110597;1268;22114;-59
2024/01/27 05:33:42;;;;;;;11.40;7.00;;;;;;;-8.40;100.00;140243.58;110504;1268;23056;-57
2024/01/27 05:36:29;;;;;;;13.40;6.80;;;;;;;-8.32;100.00;140262.30;110533;1267;22336;-61
2024/01/27 05:39:15;;;;;;;10.90;7.80;;;;;;;-8.29;100.00;140269.92;110545;1274;22114;-61
2024/01/27 05:42:01;;;;;;;9.70;7.20;;;;;;;-8.24;100.00;140280.78;110533;1274;22129;-58
2024/01/27 05:44:47;;;;;;;11.60;7.20;;;;;;;-8.18;100.00;140295.34;110490;1275;22849;-62
2024/01/27 05:47:33;;;;;;;11.20;7.20;;;;;;;-8.22;100.00;140285.47;110470;1275;22150;-62
2024/01/27 05:50:20;;;;;;;10.40;7.80;;;;;;;-8.34;100.00;140257.61;110424;1275;22145;-61
2024/01/27 05:53:06;;;;;;;14.20;10.00;;;;;;;-8.34;100.00;140257.84;110476;1275;22910;-61
2024/01/27 05:55:53;;;;;;;11.80;7.10;;;;;;;-8.33;100.00;140259.83;110517;1274;22171;-61
2024/01/27 05:58:40;;;;;;;12.50;8.10;;;;;;;-8.38;100.00;140247.25;110513;1274;22901;-60
2024/01/27 06:01:26;;;;;;;11.80;8.80;;;;;;;-8.35;100.00;140254.41;110513;1274;22814;-61
2024/01/27 06:04:13;;;;;;;13.70;8.90;;;;;;;-8.37;100.00;140249.70;110571;1268;22143;-59
2024/01/27 06:07:00;;;;;;;10.30;8.00;;;;;;;-8.34;100.00;140256.13;110532;1274;22212;-59
2024/01/27 06:09:46;;;;;;;15.70;9.40;;;;;;;-8.31;100.00;140265.50;110542;1274;22769;-59
2024/01/27 06:12:32;;;;;;;11.50;8.70;;;;;;;-8.25;100.00;140278.56;110507;1274;22191;-60
2024/01/27 06:15:18;;;;;;;10.40;7.10;;;;;;;-8.19;100.00;140294.11;110538;1274;22135;-62
2024/01/27 06:18:05;;;;;;;14.50;8.40;;;;;;;-8.17;100.00;140297.58;110540;1274;22210;-62
2024/01/27 06:20:51;;;;;;;13.10;9.10;;;;;;;-8.16;100.00;140300.28;110524;1274;22149;-59
2024/01/27 06:23:38;;;;;;;11.50;8.10;;;;;;;-8.15;100.00;140304.72;110595;1262;22725;-60
2024/01/27 06:26:24;;;;;;;11.50;7.90;;;;;;;-8.17;100.00;140297.56;110605;1269;22803;-63
2024/01/27 06:29:10;;;;;;;11.20;7.90;;;;;;;-8.13;100.00;140307.92;110432;1268;71325;-60
2024/01/27 06:31:56;;;;;;;15.20;8.90;;;;;;;-8.13;100.00;140308.17;110585;1267;22375;-64
2024/01/27 06:34:42;;;;;;;15.70;9.90;;;;;;;-8.09;100.00;140318.28;110476;1267;22321;-58
2024/01/27 06:37:28;;;;;;;16.50;9.60;;;;;;;-8.05;100.00;140326.42;110527;1274;22317;-62
2024/01/27 06:40:14;;;;;;;14.90;9.60;;;;;;;-8.07;100.00;140321.98;110556;1268;22375;-61
2024/01/27 06:43:00;;;;;;;15.50;10.10;;;;;;;-8.10;100.00;140315.34;110536;1274;22215;-61
2024/01/27 06:45:49;;;;;;;14.00;8.70;;;;;;;-8.05;100.00;140327.91;110538;1269;23126;-61
2024/01/27 06:48:35;;;;;;;13.20;8.90;;;;;;;-8.01;100.00;140336.30;110516;1267;23104;-57
2024/01/27 06:51:22;;;;;;;12.80;8.40;;;;;;;-7.98;100.00;140343.92;110523;1274;22126;-61
2024/01/27 06:54:08;;;;;;;19.20;9.80;;;;;;;-7.95;100.00;140350.88;110616;1255;22340;-63
2024/01/27 06:56:54;;;;;;;13.50;8.70;;;;;;;-7.92;100.00;140358.97;110510;1274;22370;-60
2024/01/27 06:59:40;;;;;;;17.50;9.30;;;;;;;-7.92;100.00;140358.00;110517;1274;22111;-63
2024/01/27 07:02:26;;;;;;;11.00;7.50;;;;;;;-7.97;100.00;140345.42;110571;1269;22162;-64
2024/01/27 07:05:14;;;;;;;12.10;7.40;;;;;;;-8.07;100.00;140323.20;110594;1267;22313;-63
2024/01/27 07:08:02;;;;;;;13.60;8.20;;;;;;;-8.13;100.00;140308.17;110536;1267;22161;-65
2024/01/27 07:10:47;;;;;;;11.80;7.90;;;;;;;-8.14;100.00;140304.72;110549;1269;22123;-62
2024/01/27 07:13:34;;;;;;;12.60;8.20;;;;;;;-8.17;100.00;140297.56;110486;1267;22349;-62
2024/01/27 07:16:20;;;;;;;12.30;8.10;;;;;;;-8.16;100.00;140301.00;110572;1274;22298;-61
2024/01/27 07:19:06;;;;;;;15.10;9.80;;;;;;;-8.18;100.00;140297.08;110556;1274;22395;-62
2024/01/27 07:21:52;;;;;;;18.30;10.00;;;;;;;-8.12;100.00;140311.88;110633;1261;22214;-62
2024/01/27 07:24:39;;;;;;;12.70;7.70;;;;;;;-8.05;100.00;140327.16;110550;1269;22152;-65
2024/01/27 07:27:25;;;;;;;13.70;8.70;;;;;;;-8.02;100.00;140333.58;110603;1268;22147;-64
2024/01/27 07:30:12;;;;;;;14.70;9.80;;;;;;;-7.98;100.00;140344.42;110551;1270;22123;-63
2024/01/27 07:32:58;;;;;;;14.20;8.80;;;;;;;-7.93;100.00;140355.78;110605;1274;22343;-64
2024/01/27 07:35:44;;;;;;;11.40;8.10;;;;;;;-7.89;100.00;140366.16;110587;1274;22168;-59
2024/01/27 07:38:30;;;;;;;12.80;7.50;;;;;;;-7.93;100.00;140356.53;110613;1274;22154;-59
2024/01/27 07:41:16;;;;;;;17.50;10.90;;;;;;;-7.97;100.00;140346.16;110840;1255;22146;-62
2024/01/27 07:44:10;;;;;;;14.60;8.90;;;;;;;-7.93;100.00;140356.03;110605;1274;22257;-64
2024/01/27 07:46:56;;;;;;;15.50;11.00;;;;;;;-7.88;100.00;140366.89;110610;1274;22866;-61
2024/01/27 07:49:43;;;;;;;17.30;10.30;;;;;;;-7.89;100.00;140365.91;110611;1274;22890;-68
2024/01/27 07:52:29;;;;;;;14.20;9.10;;;;;;;-7.94;100.00;140352.59;110592;1268;22774;-63
2024/01/27 07:55:17;;;;;;;18.00;11.50;;;;;;;-7.98;100.00;140342.95;110610;1266;22214;-62
2024/01/27 07:58:03;;;;;;;15.60;10.60;;;;;;;-8.00;100.00;140338.27;110527;1269;22372;-64
2024/01/27 08:00:49;;;;;;;17.40;11.60;;;;;;;-8.04;100.00;140328.39;110553;1270;22325;-62
2024/01/27 08:03:34;;;;;;;15.00;10.30;;;;;;;-8.05;100.00;140326.91;110591;1274;22135;-61
2024/01/27 08:06:29;;;;;;;14.50;10.60;;;;;;;-8.02;100.00;140333.33;110630;1274;22237;-63
2024/01/27 08:09:17;;;;;;;17.20;11.20;;;;;;;-8.00;100.00;140338.03;110609;1274;23005;-61
2024/01/27 08:12:03;;;;;;;18.20;11.10;;;;;;;-8.01;100.00;140336.53;110586;1266;22130;-63
2024/01/27 08:14:49;;;;;;;16.50;11.00;;;;;;;-7.99;100.00;140340.97;110501;1275;22357;-62
2024/01/27 08:17:35;;;;;;;16.10;10.30;;;;;;;-7.97;100.00;140346.66;110497;1275;22142;-62
2024/01/27 08:20:25;;;;;;;18.10;12.00;;;;;;;-7.94;100.00;140353.55;110597;1269;22974;-60
2024/01/27 08:23:11;;;;;;;21.70;13.30;;;;;;;-7.86;100.00;140373.31;110560;1266;22359;-64
2024/01/27 08:25:57;;;;;;;29.00;16.70;;;;;;;-7.77;100.00;140394.05;110518;1274;22324;-62
2024/01/27 08:28:43;;;;;;;30.30;17.80;;;;;;;-7.74;100.00;140401.69;110557;1267;22341;-62
2024/01/27 08:31:29;;;;;;;17.20;10.90;;;;;;;-7.74;100.00;140402.92;110517;1266;22227;-63
2024/01/27 08:34:15;;;;;;;17.90;11.20;;;;;;;-7.79;100.00;140390.08;110518;1274;22349;-61
2024/01/27 08:37:02;;;;;;;13.10;8.40;;;;;;;-7.79;100.00;140390.81;110542;1271;22246;-63
2024/01/27 08:39:50;;;;;;;19.30;12.20;;;;;;;-7.81;100.00;140384.17;110497;1269;22126;-62
2024/01/27 08:42:36;;;;;;;24.40;14.90;;;;;;;-7.77;100.00;140394.78;110559;1269;22339;-62
2024/01/27 08:45:23;;;;;;;19.00;11.70;;;;;;;-7.69;100.00;140414.52;110512;1270;22161;-64
2024/01/27 08:48:11;;;;;;;13.50;9.00;;;;;;;-7.69;100.00;140414.53;110562;1269;22910;-62
2024/01/27 08:50:57;;;;;;;12.50;7.90;;;;;;;-7.69;100.00;140414.28;110553;1260;22930;-64
2024/01/27 08:53:48;;;;;;;26.30;13.30;;;;;;;-7.71;100.00;140410.09;110544;1268;22120;-64
2024/01/27 08:56:39;;;;;;;16.50;11.00;;;;;;;-7.68;100.00;140416.00;110571;1267;22103;-61
2024/01/27 08:59:25;;;;;;;14.20;10.00;;;;;;;-7.73;100.00;140404.89;110540;1270;22298;-65
2024/01/27 09:02:12;;;;;;;15.40;10.10;;;;;;;-7.69;100.00;140414.03;110462;1267;23007;-63
2024/01/27 09:04:58;;;;;;;19.80;12.40;;;;;;;-7.59;100.00;140436.25;110581;1268;22330;-64
2024/01/27 09:07:45;;;;;;;20.30;12.70;;;;;;;-7.45;100.00;140471.80;110580;1266;22215;-62
2024/01/27 09:10:31;;;;;;;23.00;12.10;;;;;;;-7.27;100.00;140514.48;110530;1269;22335;-62
2024/01/27 09:13:17;;;;;;;16.30;11.20;;;;;;;-7.14;100.00;140544.61;110511;1269;22338;-63
2024/01/27 09:16:03;;;;;;;14.90;9.40;;;;;;;-7.09;100.00;140558.20;110492;1269;22222;-63
2024/01/27 09:18:50;;;;;;;17.90;10.00;;;;;;;-7.16;100.00;140539.92;110514;1269;22126;-67
2024/01/27 09:21:36;;;;;;;12.40;8.60;;;;;;;-7.22;100.00;140529.05;110430;1270;22777;-60
2024/01/27 09:24:23;;;;;;;18.20;9.30;;;;;;;-7.28;100.00;140512.53;110514;1272;22134;-64
2024/01/27 09:27:10;;;;;;;12.90;9.20;;;;;;;-7.35;100.00;140495.02;110503;1275;22975;-65
2024/01/27 09:29:56;;;;;;;15.30;9.20;;;;;;;-7.39;100.00;140485.09;110520;1268;22295;-63
2024/01/27 09:32:42;;;;;;;15.40;8.90;;;;;;;-7.42;100.00;140480.17;110482;1268;22310;-59
2024/01/27 09:35:29;;;;;;;12.90;8.40;;;;;;;-7.48;100.00;140465.63;110488;1275;22457;-62
2024/01/27 09:38:15;;;;;;;13.70;9.30;;;;;;;-7.54;100.00;140450.56;110452;1269;22204;-63
2024/01/27 09:41:01;;;;;;;15.10;8.60;;;;;;;-7.58;100.00;140439.95;110482;1275;22219;-61
2024/01/27 09:43:47;;;;;;;12.10;8.10;;;;;;;-7.57;100.00;140443.16;110494;1258;22224;-62
2024/01/27 09:46:33;;;;;;;11.10;7.70;;;;;;;-7.56;100.00;140443.89;110498;1269;22239;-62
2024/01/27 09:49:20;;;;;;;14.10;9.40;;;;;;;-7.64;100.00;140427.09;110548;1275;22124;-61
2024/01/27 09:52:08;;;;;;;12.40;7.80;;;;;;;-7.67;100.00;140419.70;110498;1275;22255;-63
2024/01/27 09:54:54;;;;;;;11.90;8.10;;;;;;;-7.69;100.00;140415.75;110551;1275;22205;-62
2024/01/27 09:57:40;;;;;;;13.60;9.00;;;;;;;-7.66;100.00;140421.92;110615;1275;22120;-61
2024/01/27 10:00:27;;;;;;;15.40;9.90;;;;;;;-7.60;100.00;140435.00;110569;1275;22247;-63
2024/01/27 10:03:14;;;;;;;14.60;9.40;;;;;;;-7.49;100.00;140463.14;110532;1275;22189;-61
2024/01/27 10:06:00;;;;;;;12.30;7.80;;;;;;;-7.40;100.00;140483.88;110516;1275;22373;-63
2024/01/27 10:08:56;;;;;;;13.70;8.60;;;;;;;-7.37;100.00;140490.28;110607;1256;23071;-62
2024/01/27 10:11:47;;;;;;;12.60;8.80;;;;;;;-7.42;100.00;140479.19;110383;1275;22159;-60
2024/01/27 10:14:41;;;;;;;14.50;8.10;;;;;;;-7.44;100.00;140474.50;110587;1258;22154;-62
2024/01/27 10:17:32;;;;;;;13.60;8.60;;;;;;;-7.45;100.00;140471.05;110536;1269;22288;-62
2024/01/27 10:20:19;;;;;;;13.80;8.70;;;;;;;-7.44;100.00;140475.22;110404;1276;22116;-63
2024/01/27 10:23:13;;;;;;;13.00;7.70;;;;;;;-7.46;100.00;140469.06;110452;1258;22314;-63
2024/01/27 10:26:00;;;;;;;15.10;9.80;;;;;;;-7.49;100.00;140462.16;110568;1275;22242;-59
2024/01/27 10:28:56;;;;;;;12.50;8.30;;;;;;;-7.49;100.00;140460.92;110550;1275;22371;-64
2024/01/27 10:31:42;;;;;;;11.90;8.60;;;;;;;-7.48;100.00;140465.13;110487;1258;22162;-64
2024/01/27 10:34:28;;;;;;;12.40;8.20;;;;;;;-7.47;100.00;140467.09;110388;1276;22848;-60
2024/01/27 10:37:14;;;;;;;12.30;8.40;;;;;;;-7.49;100.00;140462.88;110395;1276;22152;-62
2024/01/27 10:40:08;;;;;;;13.10;8.70;;;;;;;-7.50;100.00;140459.70;110370;1276;22240;-62
2024/01/27 10:43:02;;;;;;;12.70;7.80;;;;;;;-7.56;100.00;140443.91;110576;1259;22243;-61
2024/01/27 10:45:49;;;;;;;11.70;7.90;;;;;;;-7.52;100.00;140453.77;110519;1275;22135;-63
2024/01/27 10:48:36;;;;;;;11.50;7.60;;;;;;;-7.47;100.00;140466.84;110501;1275;22331;-63
2024/01/27 10:51:32;;;;;;;14.70;8.20;;;;;;;-7.40;100.00;140483.16;110551;1275;22143;-62
2024/01/27 10:54:23;;;;;;;14.60;9.00;;;;;;;-7.38;100.00;140488.08;110569;1275;22284;-63
2024/01/27 10:57:11;;;;;;;15.20;8.70;;;;;;;-7.32;100.00;140502.41;110541;1274;22196;-62
2024/01/27 10:59:58;;;;;;;14.00;9.20;;;;;;;-7.35;100.00;140495.22;110561;1274;22233;-61
2024/01/27 11:02:45;;;;;;;16.90;9.70;;;;;;;-7.34;100.00;140496.95;110620;1274;22221;-63
2024/01/27 11:05:35;;;;;;;15.40;9.60;;;;;;;-7.29;100.00;140509.30;110543;1274;22173;-62
2024/01/27 11:08:27;;;;;;;14.30;9.00;;;;;;;-7.27;100.00;140514.50;110557;1258;22865;-64
2024/01/27 11:11:14;;;;;;;11.60;7.90;;;;;;;-7.23;100.00;140526.33;110517;1269;22236;-62
2024/01/27 11:14:01;;;;;;;19.00;12.20;;;;;;;-7.23;100.00;140526.34;110512;1268;22229;-62
2024/01/27 11:16:47;;;;;;;15.70;10.50;;;;;;;-7.26;100.00;140517.95;110525;1267;22315;-62
2024/01/27 11:19:34;;;;;;;13.80;8.80;;;;;;;-7.31;100.00;140505.34;110558;1272;22165;-65
2024/01/27 11:22:26;;;;;;;16.40;10.30;;;;;;;-7.30;100.00;140507.83;110574;1256;22359;-65
2024/01/27 11:25:13;;;;;;;16.00;9.00;;;;;;;-7.21;100.00;140530.05;110570;1274;23049;-63
2024/01/27 11:28:11;;;;;;;22.00;12.40;;;;;;;-7.12;100.00;140551.03;110549;1272;22217;-63
2024/01/27 11:30:57;;;;;;;13.60;8.70;;;;;;;-7.10;100.00;140556.47;110582;1274;22134;-62
2024/01/27 11:33:45;;;;;;;15.30;8.30;;;;;;;-7.11;100.00;140553.23;110577;1274;22258;-62
2024/01/27 11:36:32;;;;;;;16.00;10.50;;;;;;;-7.14;100.00;140546.34;110582;1269;22356;-64
2024/01/27 11:39:31;;;;;;;15.30;10.70;;;;;;;-7.17;100.00;140538.67;110581;1260;22149;-65
2024/01/27 11:42:18;;;;;;;14.70;9.80;;;;;;;-7.13;100.00;140548.81;110538;1266;23065;-62
2024/01/27 11:45:04;;;;;;;17.20;10.60;;;;;;;-7.13;100.00;140548.33;110574;1268;23100;-63
2024/01/27 11:47:51;;;;;;;20.40;11.50;;;;;;;-7.15;100.00;140542.39;110636;1255;22218;-60
2024/01/27 11:50:37;;;;;;;17.50;10.50;;;;;;;-7.14;100.00;140544.86;110584;1269;22421;-61
2024/01/27 11:53:23;;;;;;;22.50;14.20;;;;;;;-7.12;100.00;140549.78;110533;1274;22326;-62
2024/01/27 11:56:09;;;;;;;20.90;13.20;;;;;;;-7.07;100.00;140563.63;110560;1274;22949;-63
2024/01/27 11:58:55;;;;;;;14.10;8.70;;;;;;;-7.00;100.00;140579.67;110642;1269;22102;-63
2024/01/27 12:01:42;;;;;;;15.60;9.50;;;;;;;-6.95;100.00;140591.55;110577;1272;23141;-63
2024/01/27 12:04:29;;;;;;;13.10;8.80;;;;;;;-6.92;100.00;140599.22;110623;1267;22351;-60
2024/01/27 12:07:15;;;;;;;14.20;9.30;;;;;;;-6.95;100.00;140590.83;110601;1269;22189;-63
2024/01/27 12:10:02;;;;;;;16.20;9.90;;;;;;;-7.02;100.00;140575.23;110563;1274;22372;-61
2024/01/27 12:12:48;;;;;;;14.30;9.00;;;;;;;-7.06;100.00;140565.11;110530;1256;22385;-63
2024/01/27 12:15:34;;;;;;;16.00;10.50;;;;;;;-7.09;100.00;140557.70;110523;1256;22852;-60
2024/01/27 12:18:20;;;;;;;16.40;10.50;;;;;;;-7.14;100.00;140545.63;110494;1272;23045;-64
2024/01/27 12:21:09;;;;;;;15.70;10.60;;;;;;;-7.14;100.00;140545.11;110477;1274;22367;-63
2024/01/27 12:23:57;;;;;;;18.40;11.90;;;;;;;-7.18;100.00;140535.72;110578;1274;22096;-64
2024/01/27 12:26:46;;;;;;;16.60;11.40;;;;;;;-7.21;100.00;140531.03;110540;1262;22234;-61